Latest Coastal Weather Observations for Burnie Port

IDT60701

Issued at 7:22 am EST Tuesday 22 August 2017 (issued every 10 minutes, with the page automatically refreshed every 10 minutes)

About coastal observations | Map of coastal stations | Coastal observations for TAS | Marine services | Other Formats
Station Details ID: 091344 Name: BURNIE NTC AWS Lat: -41.05 Lon: 145.91 Height: 0.0 m
Data from the previous 72 hours. | See also: Recent months for locations in Tasmania
Date/Time
EST
Temp
°C
Wind Pressure Rain since
9am
mm
Weather Cloud Vis
km
Sea
Height
m
Swell
Dir  Spd
kts
Gust
kts
hPa Trend Height
m
Period
s
Dir
22/07:00am 7.7 S 4 5 1014.9 - - - - - - - - -
22/06:30am 7.4 S 2 3 1014.8 - - - - - - - - -
22/06:00am 7.6 S 4 5 1014.8 - - - - - - - - -
22/05:30am 7.6 SSW 4 4 1014.8 - - - - - - - - -
22/05:00am 7.8 SW 3 4 1014.8 - - - - - - - - -
22/04:30am 7.7 SSW 5 7 1014.5 - - - - - - - - -
22/04:00am 7.8 SSW 5 6 1014.5 - - - - - - - - -
22/03:30am 7.6 SSW 5 6 1014.4 - - - - - - - - -
22/03:00am 7.8 SSW 5 6 1014.6 - - - - - - - - -
22/02:30am 7.7 SW 5 9 1014.7 - - - - - - - - -
22/02:00am 7.3 SSW 5 5 1014.9 - - - - - - - - -
22/01:30am 7.2 SSW 5 6 1015.1 - - - - - - - - -
22/01:00am 6.9 S 5 7 1015.2 - - - - - - - - -
22/12:30am 6.7 SSW 5 7 1015.3 - - - - - - - - -
22/12:00am 6.8 SSW 5 6 1015.5 - - - - - - - - -
 
Date/Time
EST
Temp
°C
Wind Pressure Rain since
9am
mm
Weather Cloud Vis
km
Sea
Height
m
Swell
Dir  Spd
kts
Gust
kts
hPa Trend Height
m
Period
s
Dir
21/11:30pm 7.1 SSW 5 6 1015.6 - - - - - - - - -
21/11:00pm 7.4 SSW 4 5 1015.6 - - - - - - - - -
21/10:30pm 7.7 SSW 4 5 1015.6 - - - - - - - - -
21/10:00pm 8.3 SSW 3 4 1015.6 - - - - - - - - -
21/09:30pm 8.4 SSW 2 2 1015.7 - - - - - - - - -
21/09:00pm 8.5 S 4 5 1015.7 - - - - - - - - -
21/08:30pm 9.3 WSW 2 3 1015.5 - - - - - - - - -
21/08:00pm 9.2 NNW 5 9 1015.5 - - - - - - - - -
21/07:30pm 9.3 SSW 3 4 1015.4 - - - - - - - - -
21/07:00pm 9.1 SSW 3 3 1015.0 - - - - - - - - -
21/06:30pm 9.5 SSW 3 3 1014.7 - - - - - - - - -
21/06:00pm 9.9 E 2 3 1014.3 - - - - - - - - -
21/05:30pm 9.8 SE 2 3 1014.0 - - - - - - - - -
21/05:00pm 9.9 ESE 2 2 1013.8 - - - - - - - - -
21/04:30pm 9.8 ESE 2 2 1014.0 - - - - - - - - -
21/04:00pm 9.6 ESE 2 2 1014.0 - - - - - - - - -
21/03:30pm 9.4 S 3 3 1014.0 - - - - - - - - -
21/03:00pm 9.2 N 6 9 1014.3 - - - - - - - - -
21/02:30pm 9.5 E 6 9 1014.3 - - - - - - - - -
21/02:00pm 9.4 E 8 10 1014.3 - - - - - - - - -
21/01:30pm 9.3 E 7 9 1014.4 - - - - - - - - -
21/01:00pm 9.3 E 7 9 1014.7 - - - - - - - - -
21/12:30pm 9.2 E 7 8 1015.0 - - - - - - - - -
21/12:00pm 9.1 ESE 6 7 1015.4 - - - - - - - - -
21/11:30am 8.8 E 5 7 1015.8 - - - - - - - - -
21/11:00am 8.7 ESE 2 3 1016.0 - - - - - - - - -
21/10:30am 8.3 SSE 2 3 1016.0 - - - - - - - - -
21/10:00am 7.7 SSE 7 9 1016.2 - - - - - - - - -
21/09:30am 7.4 SSW 5 8 1016.4 - - - - - - - - -
21/09:00am 6.9 SSW 4 5 1016.5 - - - - - - - - -
21/08:30am 6.1 SSW 6 6 1016.5 - - - - - - - - -
21/08:00am 6.0 S 6 7 1016.5 - - - - - - - - -
21/07:30am 5.6 SSW 5 6 1016.6 - - - - - - - - -
21/07:00am 5.4 SSW 4 5 1016.2 - - - - - - - - -
21/06:30am 5.3 SSW 6 7 1015.9 - - - - - - - - -
21/06:00am 5.6 SSW 5 7 1015.9 - - - - - - - - -
21/05:30am 5.6 SSW 6 7 1015.7 - - - - - - - - -
21/05:00am 5.8 SSW 6 8 1015.9 - - - - - - - - -
21/04:30am 6.4 SSW 3 7 1016.0 - - - - - - - - -
21/04:00am 5.8 SSW 4 5 1016.2 - - - - - - - - -
21/03:30am 6.3 S 3 4 1016.3 - - - - - - - - -
21/03:00am 6.4 S 6 8 1016.5 - - - - - - - - -
21/02:30am 6.5 S 4 5 1017.0 - - - - - - - - -
21/02:00am 6.0 SSE 3 5 1017.2 - - - - - - - - -
21/01:30am 6.1 ENE 1 3 1017.5 - - - - - - - - -
21/01:00am 5.8 S 4 5 1017.5 - - - - - - - - -
21/12:30am 6.1 SSW 4 6 1017.6 - - - - - - - - -
21/12:00am 6.2 SSW 4 5 1017.7 - - - - - - - - -
 
Date/Time
EST
Temp
°C
Wind Pressure Rain since
9am
mm
Weather Cloud Vis
km
Sea
Height
m
Swell
Dir  Spd
kts
Gust
kts
hPa Trend Height
m
Period
s
Dir
20/11:30pm 6.2 S 5 6 1017.8 - - - - - - - - -
20/11:00pm 6.9 WNW 2 3 1018.1 - - - - - - - - -
20/10:30pm 6.9 S 4 5 1018.4 - - - - - - - - -
20/10:00pm 7.1 SSE 2 4 1018.5 - - - - - - - - -
20/09:30pm 7.1 SSE 3 5 1018.6 - - - - - - - - -
20/09:00pm 7.5 S 4 7 1018.9 - - - - - - - - -
20/08:30pm 8.1 ESE 2 4 1018.9 - - - - - - - - -
20/08:00pm 9.2 WSW 3 6 1018.7 - - - - - - - - -
20/07:30pm 9.3 WSW 2 5 1018.7 - - - - - - - - -
20/07:00pm 9.6 W 5 8 1018.7 - - - - - - - - -
20/06:30pm 9.8 WNW 5 8 1018.5 - - - - - - - - -
20/06:00pm 9.9 WNW 5 8 1018.1 - - - - - - - - -
20/05:30pm 10.3 WNW 10 15 1018.0 - - - - - - - - -
20/05:00pm 10.6 NW 13 17 1018.3 - - - - - - - - -
20/04:30pm 10.6 NW 14 17 1018.5 - - - - - - - - -
20/04:00pm 10.8 NW 11 14 1018.9 - - - - - - - - -
20/03:30pm 10.3 NW 11 16 1019.2 - - - - - - - - -
20/03:00pm 10.8 NW 4 9 1019.2 - - - - - - - - -
20/02:30pm 10.5 NW 8 11 1019.4 - - - - - - - - -
20/02:00pm 10.1 NNW 11 14 1019.8 - - - - - - - - -
20/01:30pm 10.0 NNW 12 15 1020.0 - - - - - - - - -
20/01:00pm 10.1 NNW 10 12 1020.4 - - - - - - - - -
20/12:30pm 9.6 NNW 9 10 1021.1 - - - - - - - - -
20/12:00pm 9.3 NNW 10 12 1021.9 - - - - - - - - -
20/11:30am 9.0 NNW 10 11 1022.4 - - - - - - - - -
20/11:00am 8.8 NW 7 9 1023.1 - - - - - - - - -
20/10:30am 7.4 NNW 7 8 1023.5 - - - - - - - - -
20/10:00am 7.6 NW 7 9 1023.7 - - - - - - - - -
20/09:30am 7.4 NW 6 8 1024.0 - - - - - - - - -
20/09:00am 7.5 N 3 4 1024.1 - - - - - - - - -
20/08:30am 6.3 SE 3 5 1024.3 - - - - - - - - -
20/08:00am 5.5 ESE 3 5 1024.2 - - - - - - - - -
20/07:30am 4.9 SSE 2 4 1024.1 - - - - - - - - -
20/07:00am 4.8 SW 4 7 1023.9 - - - - - - - - -
20/06:30am 5.4 SW 6 9 1023.8 - - - - - - - - -
20/06:00am 4.6 SSW 6 9 1023.5 - - - - - - - - -
20/05:30am 5.0 SW 6 9 1023.8 - - - - - - - - -
20/05:00am 4.2 SSW 8 11 1023.7 - - - - - - - - -
20/04:30am 5.2 SSW 7 10 1023.9 - - - - - - - - -
20/04:00am 5.1 SW 7 10 1024.0 - - - - - - - - -
20/03:30am 5.0 SW 6 9 1024.0 - - - - - - - - -
20/03:00am 4.8 SSW 8 10 1024.0 - - - - - - - - -
20/02:30am 4.8 SW 7 10 1024.3 - - - - - - - - -
20/02:00am 4.8 SSW 6 8 1024.4 - - - - - - - - -
20/01:30am 5.1 SW 7 10 1024.6 - - - - - - - - -
20/01:00am 5.0 SW 6 10 1024.7 - - - - - - - - -
20/12:30am 5.3 WSW 7 10 1024.8 - - - - - - - - -
20/12:00am 5.5 WSW 7 11 1024.9 - - - - - - - - -
 
Date/Time
EST
Temp
°C
Wind Pressure Rain since
9am
mm
Weather Cloud Vis
km
Sea
Height
m
Swell
Dir  Spd
kts
Gust
kts
hPa Trend Height
m
Period
s
Dir
19/11:30pm 5.1 SW 7 11 1024.9 - - - - - - - - -
19/11:00pm 4.9 SW 5 8 1024.9 - - - - - - - - -
19/10:30pm 5.4 SW 7 11 1025.0 - - - - - - - - -
19/10:00pm 5.8 SW 7 10 1025.0 - - - - - - - - -
19/09:30pm 6.0 SW 8 13 1024.8 - - - - - - - - -
19/09:00pm 6.4 SW 8 12 1024.7 - - - - - - - - -
19/08:30pm 6.5 WSW 3 6 1024.8 - - - - - - - - -
19/08:00pm 6.7 W 3 5 1025.0 - - - - - - - - -
19/07:30pm 7.0 W 7 10 1024.9 - - - - - - - - -
19/07:00pm 7.9 WSW 5 9 1024.9 - - - - - - - - -
19/06:30pm 8.1 W 4 6 1025.0 - - - - - - - - -
19/06:00pm 8.4 WSW 4 6 1024.9 - - - - - - - - -
19/05:30pm 8.9 SW 9 16 1024.5 - - - - - - - - -

Other Formats:

Comma delimited format used in spreadsheet applications
http://www.bom.gov.au/fwo/IDT60701/IDT60701.95963.axf

JavaScript Object Notation format (JSON) in row-major order
http://www.bom.gov.au/fwo/IDT60701/IDT60701.95963.json